createdAt,value
2019-05-23T03:44:29.300Z,6.72
2019-05-23T03:46:31.203Z,7.40
2019-05-23T03:48:32.984Z,7.28
2019-05-23T03:50:34.864Z,6.95
2019-05-23T03:52:38.091Z,6.85
2019-05-23T03:54:41.660Z,6.58
2019-05-23T03:56:45.654Z,7.60
2019-05-23T03:58:47.623Z,8.10
2019-05-23T04:00:50.377Z,7.70
2019-05-23T04:02:51.728Z,8.28
2019-05-23T04:04:53.491Z,8.23
2019-05-23T04:06:56.571Z,7.25
2019-05-23T04:08:57.865Z,7.45
2019-05-23T04:10:59.850Z,7.55
2019-05-23T04:13:01.664Z,7.58
2019-05-23T04:15:04.125Z,8.05
2019-05-23T04:17:07.097Z,8.40
2019-05-23T04:19:08.465Z,8.33
2019-05-23T04:21:09.840Z,8.68
2019-05-23T04:23:12.905Z,8.38
2019-05-23T04:25:14.471Z,9.30
2019-05-23T04:27:15.857Z,9.35
2019-05-23T04:29:17.118Z,8.40
2019-05-23T04:31:18.656Z,7.75
2019-05-23T04:33:20.201Z,7.83
2019-05-23T04:35:21.854Z,8.50
2019-05-23T04:39:24.624Z,7.83
2019-05-23T04:43:27.193Z,8.10
2019-05-23T04:45:29.541Z,7.87
2019-05-23T04:47:31.185Z,7.42
2019-05-23T04:51:34.427Z,7.30
2019-05-23T04:53:35.695Z,7.37
2019-05-23T04:55:37.592Z,7.40
2019-05-23T04:57:40.045Z,7.80
2019-05-23T04:59:41.503Z,7.83
2019-05-23T05:01:42.867Z,7.40
2019-05-23T05:03:45.738Z,7.72
2019-05-23T05:05:47.137Z,7.87
2019-05-23T05:07:50.249Z,7.62
2019-05-23T05:11:52.945Z,8.30
2019-05-23T05:13:54.463Z,8.73
2019-05-23T05:15:55.723Z,8.25
2019-05-23T05:17:57.166Z,8.50
2019-05-23T05:19:59.537Z,8.23
2019-05-23T05:22:00.857Z,8.13
2019-05-23T05:24:02.258Z,8.83
2019-05-23T05:26:07.746Z,8.75
2019-05-23T05:28:09.043Z,7.53
2019-05-23T05:30:11.385Z,8.18
2019-05-23T05:32:14.575Z,8.78
2019-05-23T05:34:16.729Z,9.00
2019-05-23T05:36:17.998Z,8.58
2019-05-23T05:38:19.802Z,8.78
2019-05-23T05:40:21.083Z,8.83
2019-05-23T05:42:22.869Z,8.98
2019-05-23T05:44:24.659Z,10.13
2019-05-23T05:46:26.637Z,11.40
2019-05-23T05:48:29.272Z,10.45
2019-05-23T05:50:30.982Z,12.63
2019-05-23T05:52:33.643Z,10.90
2019-05-23T05:54:35.861Z,11.10
2019-05-23T05:56:37.141Z,10.63
2019-05-23T05:58:38.421Z,10.28
2019-05-23T06:00:41.602Z,9.30
2019-05-23T06:02:43.073Z,11.60
2019-05-23T06:04:44.638Z,9.63
2019-05-23T06:08:57.088Z,9.35
2019-05-23T06:10:59.054Z,13.05
2019-05-23T06:13:00.535Z,11.55
2019-05-23T06:15:04.016Z,10.10
2019-05-23T06:17:07.299Z,11.83
2019-05-23T06:19:08.878Z,10.25
2019-05-23T06:23:13.580Z,12.82
2019-05-23T06:27:18.659Z,11.97
2019-05-23T06:29:20.144Z,14.28
2019-05-23T06:33:24.562Z,15.45
2019-05-23T06:35:26.835Z,11.63
2019-05-23T06:37:33.517Z,12.55
2019-05-23T06:39:33.029Z,13.22
2019-05-23T06:41:34.694Z,14.03
2019-05-23T06:45:38.857Z,13.93
2019-05-23T06:47:40.617Z,15.58
2019-05-23T06:49:41.911Z,15.80
2019-05-23T06:51:43.165Z,14.33
2019-05-23T06:53:45.142Z,17.35
2019-05-23T06:55:46.398Z,15.25
2019-05-23T06:57:48.086Z,14.30
2019-05-23T07:01:50.971Z,15.93
2019-05-23T07:03:52.250Z,18.73
2019-05-23T07:05:53.518Z,19.07
2019-05-23T07:07:55.284Z,17.77
2019-05-23T07:11:59.414Z,16.25
2019-05-23T07:14:03.497Z,16.02
2019-05-23T07:16:04.763Z,17.85
2019-05-23T07:18:06.866Z,17.67
2019-05-23T07:20:08.548Z,13.08
2019-05-23T07:22:10.806Z,15.55
2019-05-23T07:24:12.890Z,17.60
2019-05-23T07:26:14.858Z,18.67
2019-05-23T07:28:16.118Z,18.40
2019-05-23T07:30:24.751Z,18.02
2019-05-23T07:32:27.005Z,17.73
2019-05-23T07:34:28.990Z,17.40
2019-05-23T07:36:30.851Z,17.87
2019-05-23T07:38:32.119Z,16.35
2019-05-23T07:40:33.493Z,17.32
2019-05-23T07:42:34.844Z,17.65
2019-05-23T07:44:47.903Z,16.32
2019-05-23T07:46:40.412Z,17.17
2019-05-23T07:48:42.189Z,16.45
2019-05-23T07:50:44.700Z,17.10
2019-05-23T07:52:46.014Z,16.93
2019-05-23T07:54:52.198Z,16.17
2019-05-23T07:56:54.562Z,15.05
2019-05-23T07:58:56.262Z,15.78
2019-05-23T08:01:05.961Z,14.95
2019-05-23T08:03:08.051Z,13.88
2019-05-23T08:05:11.431Z,15.38
2019-05-23T08:07:14.593Z,14.25
2019-05-23T08:09:18.153Z,15.25
2019-05-23T08:11:19.792Z,13.85
2019-05-23T08:15:22.323Z,12.05
2019-05-23T08:17:23.882Z,10.88
2019-05-23T08:21:26.322Z,9.93
2019-05-23T08:23:27.686Z,8.93
2019-05-23T08:25:28.953Z,8.65
2019-05-23T08:27:32.160Z,9.83
2019-05-23T08:29:34.055Z,9.65
2019-05-23T08:31:35.630Z,9.65
2019-05-23T08:35:39.324Z,8.83
2019-05-23T08:37:40.950Z,7.50
2019-05-23T08:39:42.706Z,8.18
2019-05-23T08:43:46.524Z,8.13
2019-05-23T08:45:47.812Z,7.60
2019-05-23T08:47:49.683Z,7.50
2019-05-23T08:49:51.462Z,6.72
2019-05-23T08:51:54.543Z,5.87
2019-05-23T08:53:55.913Z,5.85
2019-05-23T08:55:57.253Z,5.55
2019-05-23T08:57:58.819Z,5.25
2019-05-23T09:00:00.082Z,5.40
2019-05-23T09:02:02.555Z,5.35
2019-05-23T09:04:04.163Z,5.05
2019-05-23T09:08:08.819Z,5.00
2019-05-23T09:10:10.410Z,5.33
2019-05-23T09:14:12.967Z,6.22
2019-05-23T09:16:14.767Z,6.85
2019-05-23T09:18:16.245Z,7.28
2019-05-23T09:20:17.793Z,6.70
2019-05-23T09:24:20.427Z,7.72
2019-05-23T09:26:22.026Z,8.10
2019-05-23T09:32:26.935Z,7.83
2019-05-23T09:34:28.676Z,7.22
2019-05-23T09:36:29.978Z,7.40
2019-05-23T09:38:31.446Z,9.93
2019-05-23T09:40:33.108Z,8.23
2019-05-23T09:42:35.850Z,11.00
2019-05-23T09:44:37.187Z,12.33
2019-05-23T09:46:38.560Z,13.80
2019-05-23T09:48:41.490Z,12.40
2019-05-23T09:50:42.907Z,12.05
2019-05-23T09:52:45.626Z,10.18
2019-05-23T09:56:48.255Z,10.05
2019-05-23T09:58:50.625Z,11.18
2019-05-23T10:00:52.003Z,10.75
2019-05-23T10:02:53.936Z,12.00
2019-05-23T10:04:55.611Z,10.68
2019-05-23T10:06:56.882Z,10.53
2019-05-23T10:08:58.357Z,10.72
2019-05-23T10:11:00.097Z,11.48
2019-05-23T10:13:01.359Z,11.33
2019-05-23T10:15:05.031Z,11.22
2019-05-23T10:17:06.401Z,11.05
2019-05-23T10:19:07.775Z,11.63
2019-05-23T10:21:09.151Z,10.80
2019-05-23T10:23:10.413Z,10.98
2019-05-23T10:25:11.974Z,11.28
2019-05-23T10:29:15.607Z,8.98
2019-05-23T10:31:18.338Z,10.68
2019-05-23T10:33:19.619Z,9.23
2019-05-23T10:35:20.989Z,10.18
2019-05-23T10:37:22.362Z,10.58
2019-05-23T10:39:23.932Z,9.75
2019-05-23T10:43:26.590Z,10.40
2019-05-23T10:45:28.065Z,8.38
2019-05-23T10:47:29.735Z,8.03
2019-05-23T10:49:31.008Z,10.32
2019-05-23T10:51:32.285Z,9.40
2019-05-23T10:53:33.546Z,9.63
2019-05-23T10:55:35.037Z,9.25
2019-05-23T10:57:36.309Z,9.18
2019-05-23T10:59:37.691Z,8.15
2019-05-23T11:01:38.956Z,7.95
2019-05-23T11:03:40.209Z,9.65
2019-05-23T11:05:41.784Z,10.53
2019-05-23T11:07:43.156Z,10.03
2019-05-23T11:09:44.875Z,10.90
2019-05-23T11:11:46.680Z,10.68
2019-05-23T11:13:48.128Z,10.43
2019-05-23T11:15:49.505Z,9.73
2019-05-23T11:17:53.594Z,10.53
2019-05-23T11:19:54.898Z,7.05
2019-05-23T11:21:56.580Z,8.00
2019-05-23T11:23:58.249Z,6.85
2019-05-23T11:26:02.937Z,8.55
2019-05-23T11:28:04.466Z,7.80
2019-05-23T11:30:09.967Z,8.18
2019-05-23T11:32:11.847Z,8.73
2019-05-23T11:34:13.503Z,9.05
2019-05-23T11:36:33.247Z,6.83
2019-05-23T11:38:19.871Z,8.03
2019-05-23T11:40:21.481Z,8.35
2019-05-23T11:42:22.853Z,8.75
2019-05-23T11:44:24.205Z,7.95
2019-05-23T11:46:27.633Z,9.88
2019-05-23T11:48:29.204Z,9.35
2019-05-23T11:50:30.928Z,9.73
2019-05-23T11:52:32.206Z,9.95
2019-05-23T11:54:34.662Z,8.38
2019-05-23T11:56:37.970Z,8.88
2019-05-23T11:58:39.929Z,7.30
2019-05-23T12:00:52.543Z,8.20
2019-05-23T12:02:54.026Z,8.33
2019-05-23T12:07:10.495Z,10.65
2019-05-23T12:09:12.740Z,8.83
2019-05-23T12:11:15.275Z,7.62
2019-05-23T12:13:16.642Z,9.55
2019-05-23T12:15:20.344Z,9.78
2019-05-23T12:17:22.096Z,10.05
2019-05-23T12:19:23.892Z,9.03
2019-05-23T12:21:25.547Z,10.80
2019-05-23T12:25:29.866Z,9.25
2019-05-23T12:27:31.404Z,8.05
2019-05-23T12:29:33.698Z,9.25
2019-05-23T12:31:34.988Z,9.78
2019-05-23T12:33:36.591Z,10.25
2019-05-23T12:35:38.151Z,10.53
2019-05-23T12:37:39.809Z,10.93
2019-05-23T12:39:41.190Z,9.00
2019-05-23T12:43:44.214Z,6.67
2019-05-23T12:45:45.775Z,10.50
2019-05-23T12:50:08.107Z,8.13
2019-05-23T12:52:10.277Z,9.80
2019-05-23T12:54:11.560Z,10.48
2019-05-23T12:56:13.861Z,9.08
2019-05-23T12:58:15.710Z,11.40
2019-05-23T13:00:35.713Z,11.55
2019-05-23T13:02:37.935Z,9.93
2019-05-23T13:04:39.830Z,10.35
2019-05-23T13:06:41.359Z,10.72
2019-05-23T13:08:42.859Z,10.75
2019-05-23T13:10:44.574Z,11.20
2019-05-23T13:12:45.926Z,10.80
2019-05-23T13:14:47.204Z,9.30
2019-05-23T13:16:48.489Z,11.05
2019-05-23T13:18:50.766Z,10.48
2019-05-23T13:20:52.541Z,7.58
2019-05-23T13:24:55.328Z,9.83
2019-05-23T13:26:57.818Z,9.53
2019-05-23T13:28:59.086Z,11.45
2019-05-23T13:31:01.207Z,10.05
2019-05-23T13:33:03.746Z,10.25
2019-05-23T13:35:06.565Z,10.32
2019-05-23T13:37:09.750Z,8.03
2019-05-23T13:39:11.030Z,9.15
2019-05-23T13:41:12.545Z,9.13
2019-05-23T13:43:13.802Z,9.88
2019-05-23T13:45:15.189Z,8.18
2019-05-23T13:47:16.447Z,7.20
2019-05-23T13:49:17.836Z,7.37
2019-05-23T13:53:20.602Z,7.78
2019-05-23T13:57:23.243Z,6.75
2019-05-23T13:59:24.526Z,6.28
2019-05-23T14:01:26.053Z,4.83
2019-05-23T14:03:27.567Z,8.95
2019-05-23T14:07:31.283Z,8.23
2019-05-23T14:09:33.716Z,8.05
2019-05-23T14:11:35.085Z,6.80
2019-05-23T14:13:36.550Z,5.92
2019-05-23T14:15:45.594Z,5.33
2019-05-23T14:17:48.101Z,5.30
2019-05-23T14:19:50.137Z,7.50
2019-05-23T14:21:51.970Z,8.23
2019-05-23T14:23:53.567Z,5.87
2019-05-23T14:25:56.734Z,5.62
2019-05-23T14:28:00.120Z,5.83
2019-05-23T14:30:13.013Z,7.00
2019-05-23T14:32:20.585Z,5.72
2019-05-23T14:34:22.706Z,6.58
2019-05-23T14:36:42.533Z,6.25
2019-05-23T14:38:46.403Z,6.77
2019-05-23T14:40:47.668Z,6.95
2019-05-23T14:42:59.974Z,6.03
2019-05-23T14:45:01.962Z,8.48
2019-05-23T14:47:17.978Z,7.22
2019-05-23T14:49:27.550Z,8.23
2019-05-23T14:51:36.931Z,7.78
2019-05-23T14:53:56.622Z,5.40
2019-05-23T14:55:57.906Z,6.00
2019-05-23T14:57:59.683Z,5.62
2019-05-23T15:00:01.373Z,7.80
2019-05-23T15:02:03.471Z,4.62
2019-05-23T15:04:05.657Z,7.55
2019-05-23T15:06:07.084Z,5.87
2019-05-23T15:10:10.030Z,6.37
2019-05-23T15:12:11.558Z,7.47
2019-05-23T15:14:13.010Z,7.58
2019-05-23T15:16:15.801Z,6.92
2019-05-23T15:18:17.075Z,5.97
2019-05-23T15:20:18.750Z,5.87
2019-05-23T15:22:20.070Z,6.17
2019-05-23T15:24:21.448Z,7.53
2019-05-23T15:26:23.828Z,6.92
2019-05-23T15:28:25.582Z,6.05
2019-05-23T15:32:28.130Z,7.17
2019-05-23T15:34:29.637Z,5.80
2019-05-23T15:36:30.918Z,5.65
2019-05-23T15:38:32.427Z,6.28
2019-05-23T15:40:33.808Z,6.70
2019-05-23T15:42:35.146Z,6.10
2019-05-23T15:46:37.813Z,5.58
2019-05-23T15:48:39.243Z,5.47
2019-05-23T15:52:54.605Z,6.20
2019-05-23T15:55:00.419Z,6.50
2019-05-23T15:57:06.362Z,4.33
2019-05-23T15:59:18.858Z,6.12
2019-05-23T16:01:25.243Z,5.17
2019-05-23T16:03:34.588Z,5.42
2019-05-23T16:05:37.379Z,4.97
2019-05-23T16:07:38.699Z,6.17
2019-05-23T16:09:40.082Z,8.28
2019-05-23T16:13:43.232Z,5.62
2019-05-23T16:15:44.806Z,5.60
2019-05-23T16:19:47.815Z,5.47
2019-05-23T16:21:49.242Z,4.78
2019-05-23T16:27:37.237Z,5.57
2019-05-23T16:29:39.622Z,5.75
2019-05-23T16:31:41.261Z,7.83
2019-05-23T16:33:42.860Z,6.05
2019-05-23T16:35:44.748Z,6.20
2019-05-23T16:37:46.315Z,6.33
2019-05-23T16:39:49.810Z,7.97
2019-05-23T16:41:50.794Z,8.35
2019-05-23T16:43:53.067Z,7.47
2019-05-23T16:45:54.356Z,7.72
2019-05-23T16:47:55.848Z,9.88
2019-05-23T16:49:57.124Z,6.17
2019-05-23T16:54:01.131Z,7.37
2019-05-23T16:56:04.828Z,6.28
2019-05-23T16:58:10.920Z,7.58
2019-05-23T17:00:27.143Z,7.20
2019-05-23T17:02:36.059Z,7.47
2019-05-23T17:04:44.770Z,10.03
2019-05-23T17:06:56.528Z,10.85
2019-05-23T17:09:14.918Z,9.13
2019-05-23T17:11:18.108Z,12.43
2019-05-23T17:13:21.282Z,11.88
2019-05-23T17:15:30.802Z,8.53
2019-05-23T17:18:00.228Z,9.13
2019-05-23T17:19:48.081Z,10.82
2019-05-23T17:21:57.137Z,10.72
2019-05-23T17:24:00.869Z,8.98
2019-05-23T17:26:04.621Z,8.70
2019-05-23T17:28:09.706Z,10.60
2019-05-23T17:30:16.778Z,10.50
2019-05-23T17:32:20.241Z,11.60
2019-05-23T17:34:21.683Z,8.70
2019-05-23T17:36:23.045Z,8.90
2019-05-23T17:40:26.079Z,12.47
2019-05-23T17:44:28.746Z,10.80
2019-05-23T17:46:30.302Z,11.60
2019-05-23T17:48:31.721Z,12.60
2019-05-23T17:52:40.024Z,10.82
2019-05-23T17:54:41.555Z,10.68
2019-05-23T17:58:44.739Z,11.05
2019-05-23T18:00:48.062Z,9.80
2019-05-23T18:02:49.493Z,9.33
2019-05-23T18:06:52.182Z,10.78
2019-05-23T18:08:56.386Z,10.08
2019-05-23T18:10:58.227Z,11.73
2019-05-23T18:13:00.978Z,10.70
2019-05-23T18:15:04.150Z,10.72
2019-05-23T18:17:05.943Z,9.05
2019-05-23T18:21:08.567Z,9.38
2019-05-23T18:23:10.502Z,11.08
2019-05-23T18:25:12.566Z,9.28
2019-05-23T18:27:14.343Z,10.72
2019-05-23T18:29:16.061Z,9.28
2019-05-23T18:31:19.234Z,9.48
2019-05-23T18:33:22.717Z,8.45
2019-05-23T18:35:24.712Z,8.90
2019-05-23T18:37:26.581Z,8.30
2019-05-23T18:39:28.841Z,10.25
2019-05-23T18:41:30.374Z,9.05
2019-05-23T18:43:32.452Z,9.45
2019-05-23T18:45:35.427Z,8.53
2019-05-23T18:47:38.617Z,7.42
2019-05-23T18:49:40.269Z,7.55
2019-05-23T18:51:41.831Z,8.58
2019-05-23T18:55:44.958Z,7.05
2019-05-23T18:57:46.255Z,7.87
2019-05-23T18:59:48.636Z,7.33
2019-05-23T19:01:49.987Z,7.60
2019-05-23T19:03:51.683Z,7.47
2019-05-23T19:05:53.647Z,10.72
2019-05-23T19:07:56.130Z,9.23
2019-05-23T19:09:59.117Z,10.63
2019-05-23T19:12:00.827Z,12.40
2019-05-23T19:14:03.340Z,8.78
2019-05-23T19:16:05.054Z,9.33
2019-05-23T19:18:07.230Z,8.98
2019-05-23T19:20:10.269Z,8.15
2019-05-23T19:22:12.675Z,8.30
2019-05-23T19:24:15.273Z,7.42
2019-05-23T19:26:17.104Z,6.60
2019-05-23T19:28:18.418Z,8.00
2019-05-23T19:30:20.950Z,8.65
2019-05-23T19:32:22.602Z,8.18
2019-05-23T19:34:24.882Z,8.53
2019-05-23T19:36:27.541Z,9.10
2019-05-23T19:40:30.301Z,7.80
2019-05-23T19:42:31.711Z,8.13
2019-05-23T19:44:32.983Z,7.75
2019-05-23T19:46:34.257Z,10.28
2019-05-23T19:48:36.557Z,10.15
2019-05-23T19:50:39.031Z,8.83
2019-05-23T19:52:40.793Z,8.30
2019-05-23T19:54:42.908Z,8.88
2019-05-23T19:56:44.169Z,8.90
2019-05-23T19:58:45.849Z,9.63
2019-05-23T20:00:47.587Z,9.45
2019-05-23T20:02:54.125Z,8.38
2019-05-23T20:05:03.106Z,13.08
2019-05-23T20:07:05.038Z,12.10
2019-05-23T20:09:09.749Z,11.33
2019-05-23T20:11:11.284Z,11.90
2019-05-23T20:13:12.730Z,10.58
2019-05-23T20:17:15.641Z,9.73
2019-05-23T20:19:17.101Z,9.08
2019-05-23T20:21:18.869Z,8.70
2019-05-23T20:23:20.398Z,8.58
2019-05-23T20:27:23.254Z,8.80
2019-05-23T20:29:24.628Z,8.78
2019-05-23T20:31:25.988Z,8.03
2019-05-23T20:33:27.566Z,8.73
2019-05-23T20:37:31.119Z,8.65
2019-05-23T20:39:32.386Z,8.40
2019-05-23T20:41:34.628Z,8.63
2019-05-23T20:43:36.003Z,7.75
2019-05-23T20:45:37.885Z,8.83
2019-05-23T20:47:39.463Z,7.53
2019-05-23T20:51:42.222Z,8.43
2019-05-23T20:55:44.902Z,8.58
2019-05-23T20:57:46.171Z,8.55
2019-05-23T20:59:47.438Z,8.38
2019-05-23T21:01:49.206Z,8.98
2019-05-23T21:03:51.499Z,8.50
2019-05-23T21:05:53.151Z,9.70
2019-05-23T21:09:55.686Z,9.60
2019-05-23T21:11:58.050Z,9.63
2019-05-23T21:13:59.330Z,9.35
2019-05-23T21:16:00.588Z,9.48
2019-05-23T21:18:01.854Z,10.48
2019-05-23T21:20:04.642Z,9.73
2019-05-23T21:22:06.018Z,10.08
2019-05-23T21:24:07.575Z,9.18
2019-05-23T21:28:10.066Z,10.08
2019-05-23T21:30:11.580Z,10.25
2019-05-23T21:32:12.854Z,10.78
2019-05-23T21:34:14.276Z,11.20
2019-05-23T21:38:17.179Z,11.38
2019-05-23T21:40:36.928Z,10.72
2019-05-23T21:42:47.363Z,10.53
2019-05-23T21:44:41.382Z,10.50
2019-05-23T21:46:42.662Z,10.40
2019-05-23T21:48:43.975Z,9.33
2019-05-23T21:50:45.294Z,9.45
2019-05-23T21:52:46.655Z,9.48
2019-05-23T21:54:47.944Z,9.45
2019-05-23T21:56:49.273Z,10.10
2019-05-23T21:58:50.542Z,11.25
2019-05-23T22:01:00.620Z,13.30
2019-05-23T22:03:01.997Z,13.10
2019-05-23T22:05:09.440Z,12.55
2019-05-23T22:07:10.949Z,13.50
2019-05-23T22:09:14.844Z,13.60
2019-05-23T22:11:16.723Z,13.22
2019-05-23T22:13:19.895Z,12.93
2019-05-23T22:15:34.575Z,15.35
2019-05-23T22:17:36.097Z,14.15
2019-05-23T22:19:37.468Z,14.58
2019-05-23T22:21:38.737Z,13.40
2019-05-23T22:23:40.015Z,14.07
2019-05-23T22:25:41.458Z,13.70
2019-05-23T22:27:42.731Z,14.55
2019-05-23T22:29:44.031Z,13.85
2019-05-23T22:31:46.001Z,14.43
2019-05-23T22:36:07.883Z,12.03
2019-05-23T22:38:09.254Z,11.28
2019-05-23T22:40:10.755Z,10.68
2019-05-23T22:44:14.241Z,12.70
2019-05-23T22:46:15.531Z,11.93
2019-05-23T22:48:16.789Z,11.30
2019-05-23T22:50:18.268Z,12.68
2019-05-23T22:52:19.588Z,12.50
2019-05-23T22:54:20.854Z,12.95
2019-05-23T22:56:22.388Z,11.45
2019-05-23T23:00:26.805Z,11.67
2019-05-23T23:02:28.071Z,11.75
2019-05-23T23:04:29.378Z,12.70
2019-05-23T23:06:31.418Z,11.70
2019-05-23T23:08:33.102Z,10.43
2019-05-23T23:10:34.405Z,12.68
2019-05-23T23:12:35.691Z,12.18
2019-05-23T23:14:37.050Z,12.13
2019-05-23T23:16:38.321Z,12.40
2019-05-23T23:18:40.756Z,11.43
2019-05-23T23:20:45.410Z,11.83
2019-05-23T23:22:45.280Z,12.40
2019-05-23T23:24:46.694Z,11.08
2019-05-23T23:26:48.039Z,11.22
2019-05-23T23:28:50.307Z,12.25
2019-05-23T23:30:51.696Z,11.78
2019-05-23T23:32:53.082Z,12.73
2019-05-23T23:34:54.641Z,11.33
2019-05-23T23:38:57.071Z,11.23
2019-05-23T23:40:58.748Z,12.93
2019-05-23T23:45:20.388Z,12.43
2019-05-23T23:47:40.245Z,11.12
2019-05-23T23:50:00.083Z,13.65
2019-05-23T23:52:20.109Z,13.08
2019-05-23T23:54:40.293Z,14.35
2019-05-23T23:57:01.542Z,14.40
2019-05-23T23:59:03.891Z,13.78
